sensor_id;sensor_type;location;lat;lon;timestamp;temperature;humidity
44117;DHT22;29781;49.480;8.512;2022-07-10T00:00:37;20.20;99.90
44117;DHT22;29781;49.480;8.512;2022-07-10T00:03:04;20.10;99.90
44117;DHT22;29781;49.480;8.512;2022-07-10T00:05:30;20.10;99.90
44117;DHT22;29781;49.480;8.512;2022-07-10T00:07:56;20.20;99.90
44117;DHT22;29781;49.480;8.512;2022-07-10T00:10:22;20.00;99.90
44117;DHT22;29781;49.480;8.512;2022-07-10T00:12:48;20.00;99.90
44117;DHT22;29781;49.480;8.512;2022-07-10T00:15:15;20.20;99.90
44117;DHT22;29781;49.480;8.512;2022-07-10T00:17:42;20.10;99.90
44117;DHT22;29781;49.480;8.512;2022-07-10T00:20:09;20.20;99.90
44117;DHT22;29781;49.480;8.512;2022-07-10T00:22:35;19.90;99.90
44117;DHT22;29781;49.480;8.512;2022-07-10T00:25:02;20.00;99.90
44117;DHT22;29781;49.480;8.512;2022-07-10T00:27:28;19.90;99.90
44117;DHT22;29781;49.480;8.512;2022-07-10T00:29:54;20.00;99.90
44117;DHT22;29781;49.480;8.512;2022-07-10T00:32:20;20.00;99.90
44117;DHT22;29781;49.480;8.512;2022-07-10T00:34:45;19.60;99.90
44117;DHT22;29781;49.480;8.512;2022-07-10T00:37:11;19.40;99.90
44117;DHT22;29781;49.480;8.512;2022-07-10T00:39:37;19.50;99.90
44117;DHT22;29781;49.480;8.512;2022-07-10T00:42:10;19.40;99.90
44117;DHT22;29781;49.480;8.512;2022-07-10T00:44:37;19.50;99.90
44117;DHT22;29781;49.480;8.512;2022-07-10T00:47:07;19.40;99.90
44117;DHT22;29781;49.480;8.512;2022-07-10T00:49:34;19.00;99.90
44117;DHT22;29781;49.480;8.512;2022-07-10T00:52:01;19.00;99.90
44117;DHT22;29781;49.480;8.512;2022-07-10T00:54:29;19.00;99.90
44117;DHT22;29781;49.480;8.512;2022-07-10T00:56:56;18.70;99.90
44117;DHT22;29781;49.480;8.512;2022-07-10T00:59:22;18.80;99.90
44117;DHT22;29781;49.480;8.512;2022-07-10T01:01:50;18.70;99.90
44117;DHT22;29781;49.480;8.512;2022-07-10T01:04:16;18.90;99.90
44117;DHT22;29781;49.480;8.512;2022-07-10T01:06:42;19.00;99.90
44117;DHT22;29781;49.480;8.512;2022-07-10T01:09:08;19.00;99.90
44117;DHT22;29781;49.480;8.512;2022-07-10T01:11:34;18.90;99.90
44117;DHT22;29781;49.480;8.512;2022-07-10T01:14:02;18.90;99.90
44117;DHT22;29781;49.480;8.512;2022-07-10T01:16:28;19.00;99.90
44117;DHT22;29781;49.480;8.512;2022-07-10T01:18:55;18.90;99.90
44117;DHT22;29781;49.480;8.512;2022-07-10T01:21:30;18.70;99.90
44117;DHT22;29781;49.480;8.512;2022-07-10T01:23:57;18.70;99.90
44117;DHT22;29781;49.480;8.512;2022-07-10T01:26:23;18.60;99.90
44117;DHT22;29781;49.480;8.512;2022-07-10T01:28:53;18.40;99.90
44117;DHT22;29781;49.480;8.512;2022-07-10T01:31:23;18.30;99.90
44117;DHT22;29781;49.480;8.512;2022-07-10T01:33:50;18.00;99.90
44117;DHT22;29781;49.480;8.512;2022-07-10T01:36:16;18.20;99.90
44117;DHT22;29781;49.480;8.512;2022-07-10T01:38:42;18.50;99.90
44117;DHT22;29781;49.480;8.512;2022-07-10T01:41:08;18.60;99.90
44117;DHT22;29781;49.480;8.512;2022-07-10T01:43:37;18.90;99.90
44117;DHT22;29781;49.480;8.512;2022-07-10T01:46:03;19.00;99.90
44117;DHT22;29781;49.480;8.512;2022-07-10T01:48:30;19.00;99.90
44117;DHT22;29781;49.480;8.512;2022-07-10T01:50:56;19.00;99.90
44117;DHT22;29781;49.480;8.512;2022-07-10T01:53:22;18.70;99.90
44117;DHT22;29781;49.480;8.512;2022-07-10T01:55:48;18.20;99.90
44117;DHT22;29781;49.480;8.512;2022-07-10T01:58:14;17.80;99.90
44117;DHT22;29781;49.480;8.512;2022-07-10T02:00:39;17.80;99.90
44117;DHT22;29781;49.480;8.512;2022-07-10T02:03:05;18.10;99.90
44117;DHT22;29781;49.480;8.512;2022-07-10T02:05:49;18.40;99.90
44117;DHT22;29781;49.480;8.512;2022-07-10T02:08:15;18.50;99.90
44117;DHT22;29781;49.480;8.512;2022-07-10T02:10:41;18.60;99.90
44117;DHT22;29781;49.480;8.512;2022-07-10T02:13:06;18.70;99.90
44117;DHT22;29781;49.480;8.512;2022-07-10T02:15:32;18.80;99.90
44117;DHT22;29781;49.480;8.512;2022-07-10T02:17:58;18.90;99.90
44117;DHT22;29781;49.480;8.512;2022-07-10T02:20:23;18.70;99.90
44117;DHT22;29781;49.480;8.512;2022-07-10T02:22:49;18.60;99.90
44117;DHT22;29781;49.480;8.512;2022-07-10T02:25:15;18.30;99.90
44117;DHT22;29781;49.480;8.512;2022-07-10T02:27:40;18.50;99.90
44117;DHT22;29781;49.480;8.512;2022-07-10T02:30:06;18.00;99.90
44117;DHT22;29781;49.480;8.512;2022-07-10T02:32:32;17.90;99.90
44117;DHT22;29781;49.480;8.512;2022-07-10T02:34:58;17.50;99.90
44117;DHT22;29781;49.480;8.512;2022-07-10T02:37:23;17.40;99.90
44117;DHT22;29781;49.480;8.512;2022-07-10T02:39:49;17.40;99.90
44117;DHT22;29781;49.480;8.512;2022-07-10T02:42:15;17.50;99.90
44117;DHT22;29781;49.480;8.512;2022-07-10T02:44:41;17.50;99.90
44117;DHT22;29781;49.480;8.512;2022-07-10T02:47:06;17.50;99.90
44117;DHT22;29781;49.480;8.512;2022-07-10T02:49:32;17.40;99.90
44117;DHT22;29781;49.480;8.512;2022-07-10T02:51:58;17.20;99.90
44117;DHT22;29781;49.480;8.512;2022-07-10T02:54:24;17.00;99.90
44117;DHT22;29781;49.480;8.512;2022-07-10T02:56:50;17.10;99.90
44117;DHT22;29781;49.480;8.512;2022-07-10T02:59:16;17.00;99.90
44117;DHT22;29781;49.480;8.512;2022-07-10T03:01:43;16.80;99.90
44117;DHT22;29781;49.480;8.512;2022-07-10T03:04:09;16.70;99.90
44117;DHT22;29781;49.480;8.512;2022-07-10T03:06:35;16.50;99.90
44117;DHT22;29781;49.480;8.512;2022-07-10T03:09:00;16.50;99.90
44117;DHT22;29781;49.480;8.512;2022-07-10T03:11:26;16.50;99.90
44117;DHT22;29781;49.480;8.512;2022-07-10T03:13:51;16.50;99.90
44117;DHT22;29781;49.480;8.512;2022-07-10T03:16:17;16.50;99.90
44117;DHT22;29781;49.480;8.512;2022-07-10T03:18:43;16.40;99.90
44117;DHT22;29781;49.480;8.512;2022-07-10T03:21:08;16.30;99.90
44117;DHT22;29781;49.480;8.512;2022-07-10T03:23:34;16.20;99.90
44117;DHT22;29781;49.480;8.512;2022-07-10T03:26:00;16.20;99.90
44117;DHT22;29781;49.480;8.512;2022-07-10T03:28:25;16.20;99.90
44117;DHT22;29781;49.480;8.512;2022-07-10T03:30:51;16.30;99.90
44117;DHT22;29781;49.480;8.512;2022-07-10T03:33:17;16.20;99.90
44117;DHT22;29781;49.480;8.512;2022-07-10T03:35:42;16.20;99.90
44117;DHT22;29781;49.480;8.512;2022-07-10T03:38:08;16.10;99.90
44117;DHT22;29781;49.480;8.512;2022-07-10T03:40:33;16.20;99.90
44117;DHT22;29781;49.480;8.512;2022-07-10T03:42:59;16.20;99.90
44117;DHT22;29781;49.480;8.512;2022-07-10T03:45:25;16.20;99.90
44117;DHT22;29781;49.480;8.512;2022-07-10T03:47:51;16.30;99.90
44117;DHT22;29781;49.480;8.512;2022-07-10T03:50:16;16.40;99.90
44117;DHT22;29781;49.480;8.512;2022-07-10T03:52:42;16.50;99.90
44117;DHT22;29781;49.480;8.512;2022-07-10T03:55:09;16.60;99.90
44117;DHT22;29781;49.480;8.512;2022-07-10T03:57:35;16.80;99.90
44117;DHT22;29781;49.480;8.512;2022-07-10T04:00:29;17.10;99.90
44117;DHT22;29781;49.480;8.512;2022-07-10T04:03:00;17.10;99.90
44117;DHT22;29781;49.480;8.512;2022-07-10T04:05:27;17.00;99.90
44117;DHT22;29781;49.480;8.512;2022-07-10T04:07:53;16.80;99.90
44117;DHT22;29781;49.480;8.512;2022-07-10T04:10:20;16.40;99.90
44117;DHT22;29781;49.480;8.512;2022-07-10T04:12:46;16.70;99.90
44117;DHT22;29781;49.480;8.512;2022-07-10T04:15:13;16.80;99.90
44117;DHT22;29781;49.480;8.512;2022-07-10T04:17:39;16.60;99.90
44117;DHT22;29781;49.480;8.512;2022-07-10T04:20:05;16.40;99.90
44117;DHT22;29781;49.480;8.512;2022-07-10T04:22:31;16.80;99.90
44117;DHT22;29781;49.480;8.512;2022-07-10T04:24:57;16.80;99.90
44117;DHT22;29781;49.480;8.512;2022-07-10T04:27:22;17.00;99.90
44117;DHT22;29781;49.480;8.512;2022-07-10T04:29:48;17.10;99.90
44117;DHT22;29781;49.480;8.512;2022-07-10T04:32:15;16.90;99.90
44117;DHT22;29781;49.480;8.512;2022-07-10T04:34:41;16.70;99.90
44117;DHT22;29781;49.480;8.512;2022-07-10T04:37:07;16.30;99.90
44117;DHT22;29781;49.480;8.512;2022-07-10T04:39:37;16.70;99.90
44117;DHT22;29781;49.480;8.512;2022-07-10T04:42:07;16.80;99.90
44117;DHT22;29781;49.480;8.512;2022-07-10T04:44:34;17.10;99.90
44117;DHT22;29781;49.480;8.512;2022-07-10T04:47:00;17.20;99.90
44117;DHT22;29781;49.480;8.512;2022-07-10T04:49:25;17.40;99.90
44117;DHT22;29781;49.480;8.512;2022-07-10T04:51:51;17.50;99.90
44117;DHT22;29781;49.480;8.512;2022-07-10T04:54:17;17.40;99.90
44117;DHT22;29781;49.480;8.512;2022-07-10T04:56:45;17.50;99.90
44117;DHT22;29781;49.480;8.512;2022-07-10T04:59:11;17.30;99.90
44117;DHT22;29781;49.480;8.512;2022-07-10T05:01:37;17.50;99.90
44117;DHT22;29781;49.480;8.512;2022-07-10T05:04:03;17.50;99.90
44117;DHT22;29781;49.480;8.512;2022-07-10T05:06:29;16.80;99.90
44117;DHT22;29781;49.480;8.512;2022-07-10T05:08:55;17.10;99.90
44117;DHT22;29781;49.480;8.512;2022-07-10T05:11:21;16.90;99.90
44117;DHT22;29781;49.480;8.512;2022-07-10T05:13:48;16.50;99.90
44117;DHT22;29781;49.480;8.512;2022-07-10T05:16:15;16.80;99.90
44117;DHT22;29781;49.480;8.512;2022-07-10T05:18:41;17.20;99.90
44117;DHT22;29781;49.480;8.512;2022-07-10T05:21:08;17.40;99.90
44117;DHT22;29781;49.480;8.512;2022-07-10T05:23:34;17.60;99.90
44117;DHT22;29781;49.480;8.512;2022-07-10T05:26:00;17.50;99.90
44117;DHT22;29781;49.480;8.512;2022-07-10T05:28:25;16.90;99.90
44117;DHT22;29781;49.480;8.512;2022-07-10T05:30:51;16.50;99.90
44117;DHT22;29781;49.480;8.512;2022-07-10T05:33:17;16.50;99.90
44117;DHT22;29781;49.480;8.512;2022-07-10T05:35:43;16.90;99.90
44117;DHT22;29781;49.480;8.512;2022-07-10T05:38:08;16.90;99.90
44117;DHT22;29781;49.480;8.512;2022-07-10T05:40:34;16.80;99.90
44117;DHT22;29781;49.480;8.512;2022-07-10T05:43:00;17.00;99.90
44117;DHT22;29781;49.480;8.512;2022-07-10T05:45:26;17.00;99.90
44117;DHT22;29781;49.480;8.512;2022-07-10T05:47:51;17.20;99.90
44117;DHT22;29781;49.480;8.512;2022-07-10T05:50:17;16.70;99.90
44117;DHT22;29781;49.480;8.512;2022-07-10T05:52:43;16.10;99.90
44117;DHT22;29781;49.480;8.512;2022-07-10T05:55:09;16.10;99.90
44117;DHT22;29781;49.480;8.512;2022-07-10T05:57:35;16.30;99.90
44117;DHT22;29781;49.480;8.512;2022-07-10T06:00:02;16.70;99.90
44117;DHT22;29781;49.480;8.512;2022-07-10T06:02:29;16.70;99.90
44117;DHT22;29781;49.480;8.512;2022-07-10T06:04:55;16.80;99.90
44117;DHT22;29781;49.480;8.512;2022-07-10T06:07:20;17.10;99.90
44117;DHT22;29781;49.480;8.512;2022-07-10T06:09:46;17.20;99.90
44117;DHT22;29781;49.480;8.512;2022-07-10T06:12:12;17.30;99.90
44117;DHT22;29781;49.480;8.512;2022-07-10T06:14:37;17.20;99.90
44117;DHT22;29781;49.480;8.512;2022-07-10T06:17:03;16.90;99.90
44117;DHT22;29781;49.480;8.512;2022-07-10T06:19:29;16.70;99.90
44117;DHT22;29781;49.480;8.512;2022-07-10T06:21:54;16.80;99.90
44117;DHT22;29781;49.480;8.512;2022-07-10T06:24:39;17.10;99.90
44117;DHT22;29781;49.480;8.512;2022-07-10T06:27:04;17.30;99.90
44117;DHT22;29781;49.480;8.512;2022-07-10T06:29:30;17.40;99.90
44117;DHT22;29781;49.480;8.512;2022-07-10T06:31:56;17.10;99.90
44117;DHT22;29781;49.480;8.512;2022-07-10T06:34:22;17.10;99.90
44117;DHT22;29781;49.480;8.512;2022-07-10T06:36:47;17.40;99.90
44117;DHT22;29781;49.480;8.512;2022-07-10T06:39:13;17.30;99.90
44117;DHT22;29781;49.480;8.512;2022-07-10T06:41:39;16.50;99.90
44117;DHT22;29781;49.480;8.512;2022-07-10T06:44:05;16.20;99.90
44117;DHT22;29781;49.480;8.512;2022-07-10T06:46:32;16.30;99.90
44117;DHT22;29781;49.480;8.512;2022-07-10T06:48:58;16.30;99.90
44117;DHT22;29781;49.480;8.512;2022-07-10T06:51:24;16.50;99.90
44117;DHT22;29781;49.480;8.512;2022-07-10T06:53:50;16.80;99.90
44117;DHT22;29781;49.480;8.512;2022-07-10T06:56:16;16.70;99.90
44117;DHT22;29781;49.480;8.512;2022-07-10T06:58:42;16.60;99.90
44117;DHT22;29781;49.480;8.512;2022-07-10T07:01:08;16.30;99.90
44117;DHT22;29781;49.480;8.512;2022-07-10T07:03:34;16.20;99.90
44117;DHT22;29781;49.480;8.512;2022-07-10T07:06:00;16.30;99.90
44117;DHT22;29781;49.480;8.512;2022-07-10T07:08:25;16.20;99.90
44117;DHT22;29781;49.480;8.512;2022-07-10T07:10:51;16.40;99.90
44117;DHT22;29781;49.480;8.512;2022-07-10T07:13:17;16.80;99.90
44117;DHT22;29781;49.480;8.512;2022-07-10T07:15:42;16.70;99.90
44117;DHT22;29781;49.480;8.512;2022-07-10T07:18:14;16.20;99.90
44117;DHT22;29781;49.480;8.512;2022-07-10T07:20:41;16.10;99.90
44117;DHT22;29781;49.480;8.512;2022-07-10T07:23:26;16.30;99.90
44117;DHT22;29781;49.480;8.512;2022-07-10T07:25:52;16.50;99.90
44117;DHT22;29781;49.480;8.512;2022-07-10T07:28:18;16.40;99.90
44117;DHT22;29781;49.480;8.512;2022-07-10T07:30:49;16.40;99.90
44117;DHT22;29781;49.480;8.512;2022-07-10T07:33:15;16.50;99.90
44117;DHT22;29781;49.480;8.512;2022-07-10T07:35:41;16.70;99.90
44117;DHT22;29781;49.480;8.512;2022-07-10T07:38:08;16.60;99.90
44117;DHT22;29781;49.480;8.512;2022-07-10T07:40:34;16.90;99.90
44117;DHT22;29781;49.480;8.512;2022-07-10T07:43:00;17.20;99.90
44117;DHT22;29781;49.480;8.512;2022-07-10T07:45:26;17.60;99.40
44117;DHT22;29781;49.480;8.512;2022-07-10T07:47:54;17.80;98.40
44117;DHT22;29781;49.480;8.512;2022-07-10T07:50:25;18.10;97.60
44117;DHT22;29781;49.480;8.512;2022-07-10T07:52:52;18.10;97.70
44117;DHT22;29781;49.480;8.512;2022-07-10T07:55:19;18.40;97.00
44117;DHT22;29781;49.480;8.512;2022-07-10T07:57:45;18.50;96.90
44117;DHT22;29781;49.480;8.512;2022-07-10T08:00:13;18.70;96.20
44117;DHT22;29781;49.480;8.512;2022-07-10T08:02:39;18.50;94.90
44117;DHT22;29781;49.480;8.512;2022-07-10T08:05:06;18.50;96.00
44117;DHT22;29781;49.480;8.512;2022-07-10T08:07:37;17.60;96.70
44117;DHT22;29781;49.480;8.512;2022-07-10T08:10:04;17.10;97.40
44117;DHT22;29781;49.480;8.512;2022-07-10T08:12:30;17.30;98.30
44117;DHT22;29781;49.480;8.512;2022-07-10T08:14:56;17.10;97.50
44117;DHT22;29781;49.480;8.512;2022-07-10T08:17:23;17.30;98.70
44117;DHT22;29781;49.480;8.512;2022-07-10T08:19:48;17.50;97.30
44117;DHT22;29781;49.480;8.512;2022-07-10T08:22:14;17.30;97.00
44117;DHT22;29781;49.480;8.512;2022-07-10T08:24:40;17.70;98.00
44117;DHT22;29781;49.480;8.512;2022-07-10T08:27:05;17.90;97.00
44117;DHT22;29781;49.480;8.512;2022-07-10T08:29:34;18.20;95.50
44117;DHT22;29781;49.480;8.512;2022-07-10T08:32:00;18.60;95.50
44117;DHT22;29781;49.480;8.512;2022-07-10T08:34:26;18.70;94.90
44117;DHT22;29781;49.480;8.512;2022-07-10T08:36:53;18.40;95.70
44117;DHT22;29781;49.480;8.512;2022-07-10T08:39:18;18.20;95.50
44117;DHT22;29781;49.480;8.512;2022-07-10T08:41:47;18.30;94.80
44117;DHT22;29781;49.480;8.512;2022-07-10T08:44:16;18.20;96.00
44117;DHT22;29781;49.480;8.512;2022-07-10T08:46:43;18.40;94.50
44117;DHT22;29781;49.480;8.512;2022-07-10T08:49:10;18.20;94.90
44117;DHT22;29781;49.480;8.512;2022-07-10T08:52:03;18.20;94.60
44117;DHT22;29781;49.480;8.512;2022-07-10T08:54:30;18.50;94.20
44117;DHT22;29781;49.480;8.512;2022-07-10T08:57:01;18.40;93.70
44117;DHT22;29781;49.480;8.512;2022-07-10T08:59:28;18.60;94.20
44117;DHT22;29781;49.480;8.512;2022-07-10T09:01:54;18.90;93.70
44117;DHT22;29781;49.480;8.512;2022-07-10T09:04:24;18.70;93.90
44117;DHT22;29781;49.480;8.512;2022-07-10T09:06:51;18.50;93.90
44117;DHT22;29781;49.480;8.512;2022-07-10T09:09:18;18.10;93.90
44117;DHT22;29781;49.480;8.512;2022-07-10T09:11:44;18.40;94.30
44117;DHT22;29781;49.480;8.512;2022-07-10T09:14:15;19.00;93.30
44117;DHT22;29781;49.480;8.512;2022-07-10T09:16:47;18.80;92.80
44117;DHT22;29781;49.480;8.512;2022-07-10T09:19:26;18.20;93.90
44117;DHT22;29781;49.480;8.512;2022-07-10T09:24:38;18.10;93.60
44117;DHT22;29781;49.480;8.512;2022-07-10T09:27:04;18.00;93.70
44117;DHT22;29781;49.480;8.512;2022-07-10T09:29:31;18.50;93.30
44117;DHT22;29781;49.480;8.512;2022-07-10T09:32:02;19.00;93.10
44117;DHT22;29781;49.480;8.512;2022-07-10T09:34:38;19.20;91.80
44117;DHT22;29781;49.480;8.512;2022-07-10T09:37:18;19.40;91.80
44117;DHT22;29781;49.480;8.512;2022-07-10T09:40:01;19.10;91.00
44117;DHT22;29781;49.480;8.512;2022-07-10T09:42:32;18.60;92.30
44117;DHT22;29781;49.480;8.512;2022-07-10T09:47:41;18.90;91.80
44117;DHT22;29781;49.480;8.512;2022-07-10T09:50:21;19.30;92.30
44117;DHT22;29781;49.480;8.512;2022-07-10T09:53:05;19.50;91.70
44117;DHT22;29781;49.480;8.512;2022-07-10T09:55:33;19.70;90.70
44117;DHT22;29781;49.480;8.512;2022-07-10T09:58:04;19.80;90.90
44117;DHT22;29781;49.480;8.512;2022-07-10T10:00:31;19.00;91.40
44117;DHT22;29781;49.480;8.512;2022-07-10T10:03:02;19.20;91.70
44117;DHT22;29781;49.480;8.512;2022-07-10T10:05:35;18.90;91.40
44117;DHT22;29781;49.480;8.512;2022-07-10T10:08:25;19.00;92.30
44117;DHT22;29781;49.480;8.512;2022-07-10T10:10:50;19.00;91.70
44117;DHT22;29781;49.480;8.512;2022-07-10T10:13:19;19.30;91.10
44117;DHT22;29781;49.480;8.512;2022-07-10T10:15:50;19.40;91.70
44117;DHT22;29781;49.480;8.512;2022-07-10T10:18:22;19.20;91.80
44117;DHT22;29781;49.480;8.512;2022-07-10T10:20:49;19.20;91.40
44117;DHT22;29781;49.480;8.512;2022-07-10T10:23:17;19.00;92.00
44117;DHT22;29781;49.480;8.512;2022-07-10T10:25:44;18.60;92.00
44117;DHT22;29781;49.480;8.512;2022-07-10T10:28:11;18.50;92.20
44117;DHT22;29781;49.480;8.512;2022-07-10T10:30:43;18.50;92.30
44117;DHT22;29781;49.480;8.512;2022-07-10T10:36:02;18.80;91.60
44117;DHT22;29781;49.480;8.512;2022-07-10T10:41:46;19.20;90.50
44117;DHT22;29781;49.480;8.512;2022-07-10T10:47:03;19.60;91.40
44117;DHT22;29781;49.480;8.512;2022-07-10T10:49:55;19.80;90.20
44117;DHT22;29781;49.480;8.512;2022-07-10T10:52:23;19.40;90.40
44117;DHT22;29781;49.480;8.512;2022-07-10T11:00:04;19.90;90.10
44117;DHT22;29781;49.480;8.512;2022-07-10T11:02:35;20.10;88.80
44117;DHT22;29781;49.480;8.512;2022-07-10T11:15:32;20.00;88.20
44117;DHT22;29781;49.480;8.512;2022-07-10T11:18:10;20.20;90.00
44117;DHT22;29781;49.480;8.512;2022-07-10T11:25:49;20.60;88.80
44117;DHT22;29781;49.480;8.512;2022-07-10T11:28:53;20.60;86.70
44117;DHT22;29781;49.480;8.512;2022-07-10T11:31:19;20.80;86.80
44117;DHT22;29781;49.480;8.512;2022-07-10T11:33:46;20.50;87.10
44117;DHT22;29781;49.480;8.512;2022-07-10T11:36:23;20.10;85.90
44117;DHT22;29781;49.480;8.512;2022-07-10T11:38:59;19.90;89.00
44117;DHT22;29781;49.480;8.512;2022-07-10T11:41:25;20.10;89.20
44117;DHT22;29781;49.480;8.512;2022-07-10T11:43:52;20.30;88.40
44117;DHT22;29781;49.480;8.512;2022-07-10T11:46:32;20.60;86.70
44117;DHT22;29781;49.480;8.512;2022-07-10T11:48:58;20.50;87.60
44117;DHT22;29781;49.480;8.512;2022-07-10T11:51:32;20.30;88.80
44117;DHT22;29781;49.480;8.512;2022-07-10T11:56:31;20.90;87.10
44117;DHT22;29781;49.480;8.512;2022-07-10T11:59:06;20.80;87.70
44117;DHT22;29781;49.480;8.512;2022-07-10T12:01:34;20.70;86.70
44117;DHT22;29781;49.480;8.512;2022-07-10T12:04:03;20.80;87.10
44117;DHT22;29781;49.480;8.512;2022-07-10T12:06:33;20.60;86.90
44117;DHT22;29781;49.480;8.512;2022-07-10T12:09:07;20.40;88.40
44117;DHT22;29781;49.480;8.512;2022-07-10T12:11:34;20.50;89.60
44117;DHT22;29781;49.480;8.512;2022-07-10T12:14:14;20.50;87.60
44117;DHT22;29781;49.480;8.512;2022-07-10T12:16:41;20.20;90.00
44117;DHT22;29781;49.480;8.512;2022-07-10T12:19:12;20.30;89.90
44117;DHT22;29781;49.480;8.512;2022-07-10T12:21:43;20.30;88.70
44117;DHT22;29781;49.480;8.512;2022-07-10T12:24:09;20.50;88.60
44117;DHT22;29781;49.480;8.512;2022-07-10T12:26:38;20.70;89.30
44117;DHT22;29781;49.480;8.512;2022-07-10T12:29:05;20.80;88.40
44117;DHT22;29781;49.480;8.512;2022-07-10T12:31:37;20.70;89.20
44117;DHT22;29781;49.480;8.512;2022-07-10T12:34:04;20.80;89.70
44117;DHT22;29781;49.480;8.512;2022-07-10T12:36:52;20.90;88.60
44117;DHT22;29781;49.480;8.512;2022-07-10T12:39:22;21.20;88.30
44117;DHT22;29781;49.480;8.512;2022-07-10T12:42:03;21.30;88.00
44117;DHT22;29781;49.480;8.512;2022-07-10T12:44:39;21.50;87.70
44117;DHT22;29781;49.480;8.512;2022-07-10T12:47:10;21.60;87.70
44117;DHT22;29781;49.480;8.512;2022-07-10T12:49:52;21.60;87.30
44117;DHT22;29781;49.480;8.512;2022-07-10T12:52:35;21.60;86.70
44117;DHT22;29781;49.480;8.512;2022-07-10T12:57:52;21.50;86.30
44117;DHT22;29781;49.480;8.512;2022-07-10T13:00:45;21.50;88.40
44117;DHT22;29781;49.480;8.512;2022-07-10T13:03:17;21.80;88.50
44117;DHT22;29781;49.480;8.512;2022-07-10T13:05:44;22.10;87.10
44117;DHT22;29781;49.480;8.512;2022-07-10T13:08:18;21.90;86.00
44117;DHT22;29781;49.480;8.512;2022-07-10T13:10:55;21.70;86.00
44117;DHT22;29781;49.480;8.512;2022-07-10T13:13:21;21.40;86.70
44117;DHT22;29781;49.480;8.512;2022-07-10T13:15:48;21.10;88.50
44117;DHT22;29781;49.480;8.512;2022-07-10T13:18:24;20.60;89.00
44117;DHT22;29781;49.480;8.512;2022-07-10T13:20:52;20.80;89.90
44117;DHT22;29781;49.480;8.512;2022-07-10T13:23:18;21.30;89.60
44117;DHT22;29781;49.480;8.512;2022-07-10T13:25:50;21.60;87.90
44117;DHT22;29781;49.480;8.512;2022-07-10T13:28:16;21.90;87.10
44117;DHT22;29781;49.480;8.512;2022-07-10T13:30:42;21.90;87.30
44117;DHT22;29781;49.480;8.512;2022-07-10T13:33:09;21.80;86.40
44117;DHT22;29781;49.480;8.512;2022-07-10T13:35:35;21.70;86.40
44117;DHT22;29781;49.480;8.512;2022-07-10T13:38:02;21.50;87.90
44117;DHT22;29781;49.480;8.512;2022-07-10T13:40:33;21.50;87.10
44117;DHT22;29781;49.480;8.512;2022-07-10T13:43:00;21.40;88.50
44117;DHT22;29781;49.480;8.512;2022-07-10T13:45:26;21.50;87.10
44117;DHT22;29781;49.480;8.512;2022-07-10T13:47:55;21.50;87.40
44117;DHT22;29781;49.480;8.512;2022-07-10T13:50:22;21.60;87.10
44117;DHT22;29781;49.480;8.512;2022-07-10T13:52:48;21.70;86.40
44117;DHT22;29781;49.480;8.512;2022-07-10T13:55:14;21.60;86.30
44117;DHT22;29781;49.480;8.512;2022-07-10T13:57:40;21.70;86.50
44117;DHT22;29781;49.480;8.512;2022-07-10T14:00:07;21.50;87.90
44117;DHT22;29781;49.480;8.512;2022-07-10T14:02:32;21.20;87.50
44117;DHT22;29781;49.480;8.512;2022-07-10T14:04:58;21.40;88.70
44117;DHT22;29781;49.480;8.512;2022-07-10T14:07:24;21.50;88.60
44117;DHT22;29781;49.480;8.512;2022-07-10T14:09:50;21.40;89.20
44117;DHT22;29781;49.480;8.512;2022-07-10T14:12:16;21.40;89.20
44117;DHT22;29781;49.480;8.512;2022-07-10T14:14:41;21.70;88.60
44117;DHT22;29781;49.480;8.512;2022-07-10T14:17:07;22.10;86.30
44117;DHT22;29781;49.480;8.512;2022-07-10T14:19:33;21.90;87.90
44117;DHT22;29781;49.480;8.512;2022-07-10T14:21:59;22.20;87.40
44117;DHT22;29781;49.480;8.512;2022-07-10T14:24:25;22.10;87.50
44117;DHT22;29781;49.480;8.512;2022-07-10T14:26:50;21.90;88.80
44117;DHT22;29781;49.480;8.512;2022-07-10T14:29:18;21.50;87.40
44117;DHT22;29781;49.480;8.512;2022-07-10T14:31:44;21.40;88.80
44117;DHT22;29781;49.480;8.512;2022-07-10T14:34:13;21.50;89.00
44117;DHT22;29781;49.480;8.512;2022-07-10T14:36:39;21.60;88.80
44117;DHT22;29781;49.480;8.512;2022-07-10T14:39:11;21.70;89.90
44117;DHT22;29781;49.480;8.512;2022-07-10T14:41:39;21.60;87.90
44117;DHT22;29781;49.480;8.512;2022-07-10T14:44:05;21.00;88.60
44117;DHT22;29781;49.480;8.512;2022-07-10T14:46:32;21.10;90.00
44117;DHT22;29781;49.480;8.512;2022-07-10T14:48:58;21.40;89.00
44117;DHT22;29781;49.480;8.512;2022-07-10T14:51:23;21.60;89.20
44117;DHT22;29781;49.480;8.512;2022-07-10T14:53:49;21.70;87.50
44117;DHT22;29781;49.480;8.512;2022-07-10T14:56:15;21.70;87.80
44117;DHT22;29781;49.480;8.512;2022-07-10T14:58:45;21.30;88.40
44117;DHT22;29781;49.480;8.512;2022-07-10T15:01:12;21.40;89.10
44117;DHT22;29781;49.480;8.512;2022-07-10T15:03:38;21.40;88.80
44117;DHT22;29781;49.480;8.512;2022-07-10T15:06:06;21.40;89.50
44117;DHT22;29781;49.480;8.512;2022-07-10T15:08:31;21.50;89.30
44117;DHT22;29781;49.480;8.512;2022-07-10T15:10:57;21.60;88.80
44117;DHT22;29781;49.480;8.512;2022-07-10T15:13:25;21.70;89.20
44117;DHT22;29781;49.480;8.512;2022-07-10T15:15:51;21.70;88.30
44117;DHT22;29781;49.480;8.512;2022-07-10T15:18:18;21.80;87.20
44117;DHT22;29781;49.480;8.512;2022-07-10T15:20:44;21.60;87.70
44117;DHT22;29781;49.480;8.512;2022-07-10T15:23:12;21.60;89.10
44117;DHT22;29781;49.480;8.512;2022-07-10T15:25:41;21.60;89.30
44117;DHT22;29781;49.480;8.512;2022-07-10T15:28:10;21.50;88.10
44117;DHT22;29781;49.480;8.512;2022-07-10T15:30:37;21.70;88.30
44117;DHT22;29781;49.480;8.512;2022-07-10T15:33:04;21.60;89.10
44117;DHT22;29781;49.480;8.512;2022-07-10T15:35:30;21.70;89.40
44117;DHT22;29781;49.480;8.512;2022-07-10T15:37:57;21.80;88.40
44117;DHT22;29781;49.480;8.512;2022-07-10T15:40:25;21.20;89.10
44117;DHT22;29781;49.480;8.512;2022-07-10T15:42:51;21.30;89.50
44117;DHT22;29781;49.480;8.512;2022-07-10T15:45:16;21.20;89.50
44117;DHT22;29781;49.480;8.512;2022-07-10T15:47:42;21.10;89.80
44117;DHT22;29781;49.480;8.512;2022-07-10T15:50:08;21.30;90.10
44117;DHT22;29781;49.480;8.512;2022-07-10T15:52:33;21.50;90.30
44117;DHT22;29781;49.480;8.512;2022-07-10T15:54:59;21.50;89.80
44117;DHT22;29781;49.480;8.512;2022-07-10T15:57:25;21.20;90.30
44117;DHT22;29781;49.480;8.512;2022-07-10T15:59:50;21.00;91.00
44117;DHT22;29781;49.480;8.512;2022-07-10T16:02:19;20.80;91.30
44117;DHT22;29781;49.480;8.512;2022-07-10T16:04:45;21.00;91.40
44117;DHT22;29781;49.480;8.512;2022-07-10T16:07:10;21.00;91.40
44117;DHT22;29781;49.480;8.512;2022-07-10T16:09:36;21.20;91.00
44117;DHT22;29781;49.480;8.512;2022-07-10T16:12:02;21.10;91.50
44117;DHT22;29781;49.480;8.512;2022-07-10T16:14:27;21.00;91.90